sensor_id;sensor_type;location;lat;lon;timestamp;temperature;humidity
26982;DHT22;14533;50.848;4.380;2022-08-21T00:01:18;19.80;99.90
26982;DHT22;14533;50.848;4.380;2022-08-21T00:03:44;19.90;99.90
26982;DHT22;14533;50.848;4.380;2022-08-21T00:06:10;19.80;99.90
26982;DHT22;14533;50.848;4.380;2022-08-21T00:08:36;19.70;99.90
26982;DHT22;14533;50.848;4.380;2022-08-21T00:11:02;19.70;99.90
26982;DHT22;14533;50.848;4.380;2022-08-21T00:13:28;19.70;99.90
26982;DHT22;14533;50.848;4.380;2022-08-21T00:15:54;19.60;99.90
26982;DHT22;14533;50.848;4.380;2022-08-21T00:18:19;19.60;99.90
26982;DHT22;14533;50.848;4.380;2022-08-21T00:20:46;19.40;99.90
26982;DHT22;14533;50.848;4.380;2022-08-21T00:23:13;19.30;99.90
26982;DHT22;14533;50.848;4.380;2022-08-21T00:25:40;19.30;99.90
26982;DHT22;14533;50.848;4.380;2022-08-21T00:28:06;19.30;99.90
26982;DHT22;14533;50.848;4.380;2022-08-21T00:30:32;19.30;99.90
26982;DHT22;14533;50.848;4.380;2022-08-21T00:32:58;19.40;99.90
26982;DHT22;14533;50.848;4.380;2022-08-21T00:35:36;19.40;99.90
26982;DHT22;14533;50.848;4.380;2022-08-21T00:38:03;19.40;99.90
26982;DHT22;14533;50.848;4.380;2022-08-21T00:40:43;19.30;99.90
26982;DHT22;14533;50.848;4.380;2022-08-21T00:43:11;19.20;99.90
26982;DHT22;14533;50.848;4.380;2022-08-21T00:45:37;19.10;99.90
26982;DHT22;14533;50.848;4.380;2022-08-21T00:48:04;19.00;99.90
26982;DHT22;14533;50.848;4.380;2022-08-21T00:50:33;18.90;99.90
26982;DHT22;14533;50.848;4.380;2022-08-21T00:53:01;18.90;99.90
26982;DHT22;14533;50.848;4.380;2022-08-21T00:55:29;18.90;99.90
26982;DHT22;14533;50.848;4.380;2022-08-21T00:57:57;18.90;99.90
26982;DHT22;14533;50.848;4.380;2022-08-21T01:00:28;18.80;99.90
26982;DHT22;14533;50.848;4.380;2022-08-21T01:02:56;18.90;99.90
26982;DHT22;14533;50.848;4.380;2022-08-21T01:05:21;19.00;99.90
26982;DHT22;14533;50.848;4.380;2022-08-21T01:07:47;19.00;99.90
26982;DHT22;14533;50.848;4.380;2022-08-21T01:10:13;19.00;99.90
26982;DHT22;14533;50.848;4.380;2022-08-21T01:12:40;19.10;99.90
26982;DHT22;14533;50.848;4.380;2022-08-21T01:15:10;19.00;99.90
26982;DHT22;14533;50.848;4.380;2022-08-21T01:17:37;18.90;99.90
26982;DHT22;14533;50.848;4.380;2022-08-21T01:20:06;19.00;99.90
26982;DHT22;14533;50.848;4.380;2022-08-21T01:22:32;19.00;99.90
26982;DHT22;14533;50.848;4.380;2022-08-21T01:24:57;19.00;99.90
26982;DHT22;14533;50.848;4.380;2022-08-21T01:27:23;19.00;99.90
26982;DHT22;14533;50.848;4.380;2022-08-21T01:29:56;19.00;99.90
26982;DHT22;14533;50.848;4.380;2022-08-21T01:32:22;19.00;99.90
26982;DHT22;14533;50.848;4.380;2022-08-21T01:34:50;19.00;99.90
26982;DHT22;14533;50.848;4.380;2022-08-21T01:37:17;19.00;99.90
26982;DHT22;14533;50.848;4.380;2022-08-21T01:39:44;19.00;99.90
26982;DHT22;14533;50.848;4.380;2022-08-21T01:42:10;19.00;99.90
26982;DHT22;14533;50.848;4.380;2022-08-21T01:44:36;19.00;99.90
26982;DHT22;14533;50.848;4.380;2022-08-21T01:47:08;18.90;99.90
26982;DHT22;14533;50.848;4.380;2022-08-21T01:49:35;18.90;99.90
26982;DHT22;14533;50.848;4.380;2022-08-21T01:52:00;19.00;99.90
26982;DHT22;14533;50.848;4.380;2022-08-21T01:54:26;19.00;99.90
26982;DHT22;14533;50.848;4.380;2022-08-21T01:56:53;19.00;99.90
26982;DHT22;14533;50.848;4.380;2022-08-21T01:59:21;19.00;99.90
26982;DHT22;14533;50.848;4.380;2022-08-21T02:01:47;18.90;99.90
26982;DHT22;14533;50.848;4.380;2022-08-21T02:04:14;18.80;99.90
26982;DHT22;14533;50.848;4.380;2022-08-21T02:06:41;18.80;99.90
26982;DHT22;14533;50.848;4.380;2022-08-21T02:09:08;18.70;99.90
26982;DHT22;14533;50.848;4.380;2022-08-21T02:11:35;18.60;99.90
26982;DHT22;14533;50.848;4.380;2022-08-21T02:14:01;18.60;99.90
26982;DHT22;14533;50.848;4.380;2022-08-21T02:16:27;18.60;99.90
26982;DHT22;14533;50.848;4.380;2022-08-21T02:18:52;18.50;99.90
26982;DHT22;14533;50.848;4.380;2022-08-21T02:21:18;18.50;99.90
26982;DHT22;14533;50.848;4.380;2022-08-21T02:23:44;18.40;99.90
26982;DHT22;14533;50.848;4.380;2022-08-21T02:26:10;18.50;99.90
26982;DHT22;14533;50.848;4.380;2022-08-21T02:28:36;18.50;99.90
26982;DHT22;14533;50.848;4.380;2022-08-21T02:31:02;18.60;99.90
26982;DHT22;14533;50.848;4.380;2022-08-21T02:33:28;18.60;99.90
26982;DHT22;14533;50.848;4.380;2022-08-21T02:35:55;18.60;99.90
26982;DHT22;14533;50.848;4.380;2022-08-21T02:38:31;18.60;99.90
26982;DHT22;14533;50.848;4.380;2022-08-21T02:40:59;18.60;99.90
26982;DHT22;14533;50.848;4.380;2022-08-21T02:43:26;18.70;99.90
26982;DHT22;14533;50.848;4.380;2022-08-21T02:45:54;18.70;99.90
26982;DHT22;14533;50.848;4.380;2022-08-21T02:48:28;18.60;99.90
26982;DHT22;14533;50.848;4.380;2022-08-21T02:51:03;18.70;99.90
26982;DHT22;14533;50.848;4.380;2022-08-21T02:53:30;18.80;99.90
26982;DHT22;14533;50.848;4.380;2022-08-21T02:55:58;18.70;99.90
26982;DHT22;14533;50.848;4.380;2022-08-21T02:58:27;18.70;99.90
26982;DHT22;14533;50.848;4.380;2022-08-21T03:00:53;18.60;99.90
26982;DHT22;14533;50.848;4.380;2022-08-21T03:03:19;18.70;99.90
26982;DHT22;14533;50.848;4.380;2022-08-21T03:05:46;18.70;99.90
26982;DHT22;14533;50.848;4.380;2022-08-21T03:08:14;18.60;99.90
26982;DHT22;14533;50.848;4.380;2022-08-21T03:10:43;18.60;99.90
26982;DHT22;14533;50.848;4.380;2022-08-21T03:13:09;18.60;99.90
26982;DHT22;14533;50.848;4.380;2022-08-21T03:15:36;18.50;99.90
26982;DHT22;14533;50.848;4.380;2022-08-21T03:18:03;18.50;99.90
26982;DHT22;14533;50.848;4.380;2022-08-21T03:20:30;18.50;99.90
26982;DHT22;14533;50.848;4.380;2022-08-21T03:22:58;18.50;99.90
26982;DHT22;14533;50.848;4.380;2022-08-21T03:25:25;18.40;99.90
26982;DHT22;14533;50.848;4.380;2022-08-21T03:27:51;18.30;99.90
26982;DHT22;14533;50.848;4.380;2022-08-21T03:30:18;18.20;99.90
26982;DHT22;14533;50.848;4.380;2022-08-21T03:32:46;18.10;99.90
26982;DHT22;14533;50.848;4.380;2022-08-21T03:35:13;18.10;99.90
26982;DHT22;14533;50.848;4.380;2022-08-21T03:37:39;18.10;99.90
26982;DHT22;14533;50.848;4.380;2022-08-21T03:40:06;18.20;99.90
26982;DHT22;14533;50.848;4.380;2022-08-21T03:42:32;18.20;99.90
26982;DHT22;14533;50.848;4.380;2022-08-21T03:44:58;18.20;99.90
26982;DHT22;14533;50.848;4.380;2022-08-21T03:47:23;18.20;99.90
26982;DHT22;14533;50.848;4.380;2022-08-21T03:49:49;18.30;99.90
26982;DHT22;14533;50.848;4.380;2022-08-21T03:52:15;18.30;99.90
26982;DHT22;14533;50.848;4.380;2022-08-21T03:54:43;18.40;99.90
26982;DHT22;14533;50.848;4.380;2022-08-21T03:57:09;18.30;99.90
26982;DHT22;14533;50.848;4.380;2022-08-21T03:59:36;18.20;99.90
26982;DHT22;14533;50.848;4.380;2022-08-21T04:02:04;18.20;99.90
26982;DHT22;14533;50.848;4.380;2022-08-21T04:04:31;18.20;99.90
26982;DHT22;14533;50.848;4.380;2022-08-21T04:06:57;18.10;99.90
26982;DHT22;14533;50.848;4.380;2022-08-21T04:09:23;18.10;99.90
26982;DHT22;14533;50.848;4.380;2022-08-21T04:11:49;18.10;99.90
26982;DHT22;14533;50.848;4.380;2022-08-21T04:14:15;18.00;99.90
26982;DHT22;14533;50.848;4.380;2022-08-21T04:16:42;18.10;99.90
26982;DHT22;14533;50.848;4.380;2022-08-21T04:19:08;18.10;99.90
26982;DHT22;14533;50.848;4.380;2022-08-21T04:21:36;18.10;99.90
26982;DHT22;14533;50.848;4.380;2022-08-21T04:24:02;18.00;99.90
26982;DHT22;14533;50.848;4.380;2022-08-21T04:26:28;18.00;99.90
26982;DHT22;14533;50.848;4.380;2022-08-21T04:28:53;18.00;99.90
26982;DHT22;14533;50.848;4.380;2022-08-21T04:31:23;18.10;99.90
26982;DHT22;14533;50.848;4.380;2022-08-21T04:33:48;18.00;99.90
26982;DHT22;14533;50.848;4.380;2022-08-21T04:36:14;17.90;99.90
26982;DHT22;14533;50.848;4.380;2022-08-21T04:38:39;18.00;99.90
26982;DHT22;14533;50.848;4.380;2022-08-21T04:41:05;18.10;99.90
26982;DHT22;14533;50.848;4.380;2022-08-21T04:43:32;18.20;99.90
26982;DHT22;14533;50.848;4.380;2022-08-21T04:45:58;18.20;99.90
26982;DHT22;14533;50.848;4.380;2022-08-21T04:48:25;18.00;99.90
26982;DHT22;14533;50.848;4.380;2022-08-21T04:50:59;18.00;99.90
26982;DHT22;14533;50.848;4.380;2022-08-21T04:56:06;18.00;99.90
26982;DHT22;14533;50.848;4.380;2022-08-21T04:58:35;18.00;99.90
26982;DHT22;14533;50.848;4.380;2022-08-21T05:01:03;18.00;99.90
26982;DHT22;14533;50.848;4.380;2022-08-21T05:03:30;18.00;99.90
26982;DHT22;14533;50.848;4.380;2022-08-21T05:05:58;18.00;99.90
26982;DHT22;14533;50.848;4.380;2022-08-21T05:08:26;18.00;99.90
26982;DHT22;14533;50.848;4.380;2022-08-21T05:10:53;17.90;99.90
26982;DHT22;14533;50.848;4.380;2022-08-21T05:13:19;17.80;99.90
26982;DHT22;14533;50.848;4.380;2022-08-21T05:15:46;17.90;99.90
26982;DHT22;14533;50.848;4.380;2022-08-21T05:18:12;17.90;99.90
26982;DHT22;14533;50.848;4.380;2022-08-21T05:20:38;17.90;99.90
26982;DHT22;14533;50.848;4.380;2022-08-21T05:23:11;18.50;99.90
26982;DHT22;14533;50.848;4.380;2022-08-21T05:25:37;18.90;99.90
26982;DHT22;14533;50.848;4.380;2022-08-21T05:28:04;20.10;99.90
26982;DHT22;14533;50.848;4.380;2022-08-21T05:30:30;20.70;99.90
26982;DHT22;14533;50.848;4.380;2022-08-21T05:33:00;21.30;99.90
26982;DHT22;14533;50.848;4.380;2022-08-21T05:35:26;21.90;99.90
26982;DHT22;14533;50.848;4.380;2022-08-21T05:37:52;22.20;99.90
26982;DHT22;14533;50.848;4.380;2022-08-21T05:40:18;22.30;99.90
26982;DHT22;14533;50.848;4.380;2022-08-21T05:42:44;22.20;99.90
26982;DHT22;14533;50.848;4.380;2022-08-21T05:45:09;21.70;99.90
26982;DHT22;14533;50.848;4.380;2022-08-21T05:47:35;20.90;99.90
26982;DHT22;14533;50.848;4.380;2022-08-21T05:50:01;20.30;99.90
26982;DHT22;14533;50.848;4.380;2022-08-21T05:52:26;19.50;99.90
26982;DHT22;14533;50.848;4.380;2022-08-21T05:54:52;19.00;99.90
26982;DHT22;14533;50.848;4.380;2022-08-21T05:57:20;18.80;99.90
26982;DHT22;14533;50.848;4.380;2022-08-21T05:59:46;18.50;99.90
26982;DHT22;14533;50.848;4.380;2022-08-21T06:02:11;18.60;99.90
26982;DHT22;14533;50.848;4.380;2022-08-21T06:04:40;19.20;99.90
26982;DHT22;14533;50.848;4.380;2022-08-21T06:07:06;20.90;99.90
26982;DHT22;14533;50.848;4.380;2022-08-21T06:09:32;22.10;99.90
26982;DHT22;14533;50.848;4.380;2022-08-21T06:12:02;22.70;99.90
26982;DHT22;14533;50.848;4.380;2022-08-21T06:14:27;23.80;99.90
26982;DHT22;14533;50.848;4.380;2022-08-21T06:16:53;24.10;99.20
26982;DHT22;14533;50.848;4.380;2022-08-21T06:19:19;24.40;98.40
26982;DHT22;14533;50.848;4.380;2022-08-21T06:21:44;24.60;97.30
26982;DHT22;14533;50.848;4.380;2022-08-21T06:24:10;24.10;97.40
26982;DHT22;14533;50.848;4.380;2022-08-21T06:26:36;24.40;97.10
26982;DHT22;14533;50.848;4.380;2022-08-21T06:29:02;24.50;96.90
26982;DHT22;14533;50.848;4.380;2022-08-21T06:31:28;24.70;96.10
26982;DHT22;14533;50.848;4.380;2022-08-21T06:33:54;25.10;95.10
26982;DHT22;14533;50.848;4.380;2022-08-21T06:36:20;25.40;94.20
26982;DHT22;14533;50.848;4.380;2022-08-21T06:38:48;25.70;93.50
26982;DHT22;14533;50.848;4.380;2022-08-21T06:41:14;25.90;92.90
26982;DHT22;14533;50.848;4.380;2022-08-21T06:43:40;26.40;91.80
26982;DHT22;14533;50.848;4.380;2022-08-21T06:46:06;26.90;90.60
26982;DHT22;14533;50.848;4.380;2022-08-21T06:48:32;28.00;87.00
26982;DHT22;14533;50.848;4.380;2022-08-21T06:51:00;28.20;84.60
26982;DHT22;14533;50.848;4.380;2022-08-21T06:53:26;27.50;84.70
26982;DHT22;14533;50.848;4.380;2022-08-21T06:55:51;26.90;87.50
26982;DHT22;14533;50.848;4.380;2022-08-21T06:58:17;27.80;86.50
26982;DHT22;14533;50.848;4.380;2022-08-21T07:00:47;28.10;83.20
26982;DHT22;14533;50.848;4.380;2022-08-21T07:03:28;28.60;82.50
26982;DHT22;14533;50.848;4.380;2022-08-21T07:05:55;29.80;79.30
26982;DHT22;14533;50.848;4.380;2022-08-21T07:08:22;31.00;74.50
26982;DHT22;14533;50.848;4.380;2022-08-21T07:10:48;31.20;71.70
26982;DHT22;14533;50.848;4.380;2022-08-21T07:13:14;30.50;71.50
26982;DHT22;14533;50.848;4.380;2022-08-21T07:15:40;29.60;74.60
26982;DHT22;14533;50.848;4.380;2022-08-21T07:18:06;28.70;77.70
26982;DHT22;14533;50.848;4.380;2022-08-21T07:20:33;29.30;78.00
26982;DHT22;14533;50.848;4.380;2022-08-21T07:23:02;30.10;75.40
26982;DHT22;14533;50.848;4.380;2022-08-21T07:25:29;30.10;75.10
26982;DHT22;14533;50.848;4.380;2022-08-21T07:27:55;30.30;74.40
26982;DHT22;14533;50.848;4.380;2022-08-21T07:30:21;29.80;75.10
26982;DHT22;14533;50.848;4.380;2022-08-21T07:32:47;28.70;78.50
26982;DHT22;14533;50.848;4.380;2022-08-21T07:35:15;27.30;84.00
26982;DHT22;14533;50.848;4.380;2022-08-21T07:37:40;26.20;89.50
26982;DHT22;14533;50.848;4.380;2022-08-21T07:40:06;25.60;92.30
26982;DHT22;14533;50.848;4.380;2022-08-21T07:42:32;27.00;90.20
26982;DHT22;14533;50.848;4.380;2022-08-21T07:44:58;27.70;87.60
26982;DHT22;14533;50.848;4.380;2022-08-21T07:47:23;28.40;85.60
26982;DHT22;14533;50.848;4.380;2022-08-21T07:49:49;28.20;85.50
26982;DHT22;14533;50.848;4.380;2022-08-21T07:52:15;27.90;87.60
26982;DHT22;14533;50.848;4.380;2022-08-21T07:54:41;28.30;86.50
26982;DHT22;14533;50.848;4.380;2022-08-21T07:57:06;28.30;85.30
26982;DHT22;14533;50.848;4.380;2022-08-21T07:59:32;28.30;85.20
26982;DHT22;14533;50.848;4.380;2022-08-21T08:01:58;27.20;89.00
26982;DHT22;14533;50.848;4.380;2022-08-21T08:04:23;26.80;91.00
26982;DHT22;14533;50.848;4.380;2022-08-21T08:06:49;26.20;91.80
26982;DHT22;14533;50.848;4.380;2022-08-21T08:09:15;25.40;93.30
26982;DHT22;14533;50.848;4.380;2022-08-21T08:11:42;25.00;94.90
26982;DHT22;14533;50.848;4.380;2022-08-21T08:14:09;24.80;95.60
26982;DHT22;14533;50.848;4.380;2022-08-21T08:16:35;24.40;97.20
26982;DHT22;14533;50.848;4.380;2022-08-21T08:19:00;24.30;97.90
26982;DHT22;14533;50.848;4.380;2022-08-21T08:21:26;24.30;98.10
26982;DHT22;14533;50.848;4.380;2022-08-21T08:23:52;24.40;98.30
26982;DHT22;14533;50.848;4.380;2022-08-21T08:26:18;24.40;98.60
26982;DHT22;14533;50.848;4.380;2022-08-21T08:28:43;24.70;97.60
26982;DHT22;14533;50.848;4.380;2022-08-21T08:31:09;24.70;98.00
26982;DHT22;14533;50.848;4.380;2022-08-21T08:33:35;25.20;97.90
26982;DHT22;14533;50.848;4.380;2022-08-21T08:36:00;26.50;94.90
26982;DHT22;14533;50.848;4.380;2022-08-21T08:38:26;27.20;92.60
26982;DHT22;14533;50.848;4.380;2022-08-21T08:41:02;27.40;91.80
26982;DHT22;14533;50.848;4.380;2022-08-21T08:43:33;27.70;90.70
26982;DHT22;14533;50.848;4.380;2022-08-21T08:46:04;27.40;90.60
26982;DHT22;14533;50.848;4.380;2022-08-21T08:48:49;26.50;91.80
26982;DHT22;14533;50.848;4.380;2022-08-21T08:54:02;27.80;90.60
26982;DHT22;14533;50.848;4.380;2022-08-21T08:56:31;27.50;90.70
26982;DHT22;14533;50.848;4.380;2022-08-21T08:59:02;26.70;92.00
26982;DHT22;14533;50.848;4.380;2022-08-21T09:01:32;26.60;92.60
26982;DHT22;14533;50.848;4.380;2022-08-21T09:03:58;26.30;92.50
26982;DHT22;14533;50.848;4.380;2022-08-21T09:17:02;27.60;89.80
26982;DHT22;14533;50.848;4.380;2022-08-21T09:25:20;26.20;92.20
26982;DHT22;14533;50.848;4.380;2022-08-21T09:27:46;26.80;91.60
26982;DHT22;14533;50.848;4.380;2022-08-21T09:30:12;27.00;91.40
26982;DHT22;14533;50.848;4.380;2022-08-21T09:32:39;27.80;89.50
26982;DHT22;14533;50.848;4.380;2022-08-21T09:35:06;28.40;86.10
26982;DHT22;14533;50.848;4.380;2022-08-21T09:37:44;28.50;83.50
26982;DHT22;14533;50.848;4.380;2022-08-21T09:43:05;27.30;88.50
26982;DHT22;14533;50.848;4.380;2022-08-21T09:45:32;27.40;89.30
26982;DHT22;14533;50.848;4.380;2022-08-21T09:48:19;27.10;89.00
26982;DHT22;14533;50.848;4.380;2022-08-21T09:50:46;26.30;91.30
26982;DHT22;14533;50.848;4.380;2022-08-21T09:53:21;26.40;91.10
26982;DHT22;14533;50.848;4.380;2022-08-21T09:55:52;25.80;91.60
26982;DHT22;14533;50.848;4.380;2022-08-21T09:58:39;25.40;92.50
26982;DHT22;14533;50.848;4.380;2022-08-21T10:01:06;25.60;92.60
26982;DHT22;14533;50.848;4.380;2022-08-21T10:03:32;25.60;92.80
26982;DHT22;14533;50.848;4.380;2022-08-21T10:06:01;25.60;93.10
26982;DHT22;14533;50.848;4.380;2022-08-21T10:08:32;25.30;93.80
26982;DHT22;14533;50.848;4.380;2022-08-21T10:13:54;25.20;94.50
26982;DHT22;14533;50.848;4.380;2022-08-21T10:28:18;27.30;90.30
26982;DHT22;14533;50.848;4.380;2022-08-21T10:30:52;27.50;89.50
26982;DHT22;14533;50.848;4.380;2022-08-21T10:33:35;27.20;90.00
26982;DHT22;14533;50.848;4.380;2022-08-21T10:36:18;27.00;90.60
26982;DHT22;14533;50.848;4.380;2022-08-21T10:39:18;26.40;91.30
26982;DHT22;14533;50.848;4.380;2022-08-21T10:44:55;26.00;92.40
26982;DHT22;14533;50.848;4.380;2022-08-21T10:47:46;26.30;92.10
26982;DHT22;14533;50.848;4.380;2022-08-21T10:55:33;25.50;93.30
26982;DHT22;14533;50.848;4.380;2022-08-21T10:58:10;25.00;94.00
26982;DHT22;14533;50.848;4.380;2022-08-21T11:00:46;24.90;95.10
26982;DHT22;14533;50.848;4.380;2022-08-21T11:03:23;25.10;95.00
26982;DHT22;14533;50.848;4.380;2022-08-21T11:05:55;25.30;94.50
26982;DHT22;14533;50.848;4.380;2022-08-21T11:08:31;25.80;93.80
26982;DHT22;14533;50.848;4.380;2022-08-21T11:11:01;26.10;92.90
26982;DHT22;14533;50.848;4.380;2022-08-21T11:19:08;26.60;91.30
26982;DHT22;14533;50.848;4.380;2022-08-21T11:21:39;26.70;91.80
26982;DHT22;14533;50.848;4.380;2022-08-21T11:24:23;26.80;91.20
26982;DHT22;14533;50.848;4.380;2022-08-21T11:26:54;26.80;91.20
26982;DHT22;14533;50.848;4.380;2022-08-21T11:29:38;26.50;91.10
26982;DHT22;14533;50.848;4.380;2022-08-21T11:48:56;25.70;93.10
26982;DHT22;14533;50.848;4.380;2022-08-21T11:51:38;26.00;92.80
26982;DHT22;14533;50.848;4.380;2022-08-21T11:54:27;26.40;92.20
26982;DHT22;14533;50.848;4.380;2022-08-21T11:57:02;26.60;91.10
26982;DHT22;14533;50.848;4.380;2022-08-21T11:59:43;26.30;91.30
26982;DHT22;14533;50.848;4.380;2022-08-21T12:02:15;26.20;91.90
26982;DHT22;14533;50.848;4.380;2022-08-21T12:04:55;26.50;91.00
26982;DHT22;14533;50.848;4.380;2022-08-21T12:07:40;26.70;90.40
26982;DHT22;14533;50.848;4.380;2022-08-21T12:10:13;27.20;89.80
26982;DHT22;14533;50.848;4.380;2022-08-21T12:12:41;27.30;88.50
26982;DHT22;14533;50.848;4.380;2022-08-21T12:22:55;27.80;86.30
26982;DHT22;14533;50.848;4.380;2022-08-21T12:25:47;27.80;84.30
26982;DHT22;14533;50.848;4.380;2022-08-21T12:28:20;27.60;84.20
26982;DHT22;14533;50.848;4.380;2022-08-21T12:30:46;27.40;84.30
26982;DHT22;14533;50.848;4.380;2022-08-21T12:33:34;27.20;85.40
26982;DHT22;14533;50.848;4.380;2022-08-21T12:36:10;26.90;86.40
26982;DHT22;14533;50.848;4.380;2022-08-21T12:41:32;27.50;85.00
26982;DHT22;14533;50.848;4.380;2022-08-21T12:44:08;27.80;85.70
26982;DHT22;14533;50.848;4.380;2022-08-21T12:46:53;27.60;84.10
26982;DHT22;14533;50.848;4.380;2022-08-21T12:49:35;27.50;84.80
26982;DHT22;14533;50.848;4.380;2022-08-21T12:52:23;27.80;83.70
26982;DHT22;14533;50.848;4.380;2022-08-21T12:54:50;27.70;83.10
26982;DHT22;14533;50.848;4.380;2022-08-21T12:57:35;27.50;83.40
26982;DHT22;14533;50.848;4.380;2022-08-21T13:00:05;27.30;83.80
26982;DHT22;14533;50.848;4.380;2022-08-21T13:02:43;26.90;84.50
26982;DHT22;14533;50.848;4.380;2022-08-21T13:05:15;26.80;85.20
26982;DHT22;14533;50.848;4.380;2022-08-21T13:07:46;26.80;85.50
26982;DHT22;14533;50.848;4.380;2022-08-21T13:12:44;26.50;84.60
26982;DHT22;14533;50.848;4.380;2022-08-21T13:15:11;26.20;86.00
26982;DHT22;14533;50.848;4.380;2022-08-21T13:17:39;26.30;86.50
26982;DHT22;14533;50.848;4.380;2022-08-21T13:20:18;26.50;87.60
26982;DHT22;14533;50.848;4.380;2022-08-21T13:22:45;26.50;87.80
26982;DHT22;14533;50.848;4.380;2022-08-21T13:25:13;26.60;86.10
26982;DHT22;14533;50.848;4.380;2022-08-21T13:27:43;26.80;85.40
26982;DHT22;14533;50.848;4.380;2022-08-21T13:30:21;26.60;86.30
26982;DHT22;14533;50.848;4.380;2022-08-21T13:32:54;26.60;87.20
26982;DHT22;14533;50.848;4.380;2022-08-21T13:38:09;26.50;87.50
26982;DHT22;14533;50.848;4.380;2022-08-21T13:40:50;26.60;87.60
26982;DHT22;14533;50.848;4.380;2022-08-21T13:43:19;26.80;85.80
26982;DHT22;14533;50.848;4.380;2022-08-21T13:45:51;26.70;86.20
26982;DHT22;14533;50.848;4.380;2022-08-21T13:48:17;26.60;85.60
26982;DHT22;14533;50.848;4.380;2022-08-21T13:50:43;26.50;86.00
26982;DHT22;14533;50.848;4.380;2022-08-21T13:53:34;26.50;86.00
26982;DHT22;14533;50.848;4.380;2022-08-21T13:56:01;26.70;85.90
26982;DHT22;14533;50.848;4.380;2022-08-21T13:58:45;26.60;85.50
26982;DHT22;14533;50.848;4.380;2022-08-21T14:01:38;26.30;85.60
26982;DHT22;14533;50.848;4.380;2022-08-21T14:04:24;26.40;86.40
26982;DHT22;14533;50.848;4.380;2022-08-21T14:06:50;26.30;86.10
26982;DHT22;14533;50.848;4.380;2022-08-21T14:09:27;26.30;86.90
26982;DHT22;14533;50.848;4.380;2022-08-21T14:11:56;26.00;87.30
26982;DHT22;14533;50.848;4.380;2022-08-21T14:14:31;26.00;88.20
26982;DHT22;14533;50.848;4.380;2022-08-21T14:17:03;26.00;88.50
26982;DHT22;14533;50.848;4.380;2022-08-21T14:19:38;26.00;88.90
26982;DHT22;14533;50.848;4.380;2022-08-21T14:24:49;25.90;89.10
26982;DHT22;14533;50.848;4.380;2022-08-21T14:27:17;26.10;89.20
26982;DHT22;14533;50.848;4.380;2022-08-21T14:29:44;26.40;87.90
26982;DHT22;14533;50.848;4.380;2022-08-21T14:32:15;26.50;87.70
26982;DHT22;14533;50.848;4.380;2022-08-21T14:34:41;26.60;87.50
26982;DHT22;14533;50.848;4.380;2022-08-21T14:37:06;26.70;86.90
26982;DHT22;14533;50.848;4.380;2022-08-21T14:39:32;26.30;88.70
26982;DHT22;14533;50.848;4.380;2022-08-21T14:41:59;26.30;88.40
26982;DHT22;14533;50.848;4.380;2022-08-21T14:44:26;26.40;89.40
26982;DHT22;14533;50.848;4.380;2022-08-21T14:46:51;26.80;87.90
26982;DHT22;14533;50.848;4.380;2022-08-21T14:49:17;27.00;86.10
26982;DHT22;14533;50.848;4.380;2022-08-21T14:51:43;26.90;86.20
26982;DHT22;14533;50.848;4.380;2022-08-21T14:54:09;26.50;86.60
26982;DHT22;14533;50.848;4.380;2022-08-21T14:56:35;26.40;87.40
26982;DHT22;14533;50.848;4.380;2022-08-21T14:59:07;26.10;87.90
26982;DHT22;14533;50.848;4.380;2022-08-21T15:01:37;26.20;88.60
26982;DHT22;14533;50.848;4.380;2022-08-21T15:04:03;26.20;88.70
26982;DHT22;14533;50.848;4.380;2022-08-21T15:06:28;26.00;90.20
26982;DHT22;14533;50.848;4.380;2022-08-21T15:08:54;26.00;89.60
26982;DHT22;14533;50.848;4.380;2022-08-21T15:11:21;25.90;89.50
26982;DHT22;14533;50.848;4.380;2022-08-21T15:13:51;26.10;89.70
26982;DHT22;14533;50.848;4.380;2022-08-21T15:16:18;26.40;88.00
26982;DHT22;14533;50.848;4.380;2022-08-21T15:18:43;26.40;87.30
26982;DHT22;14533;50.848;4.380;2022-08-21T15:21:09;26.40;87.30
26982;DHT22;14533;50.848;4.380;2022-08-21T15:23:35;26.60;87.00
26982;DHT22;14533;50.848;4.380;2022-08-21T15:26:00;26.40;87.40
26982;DHT22;14533;50.848;4.380;2022-08-21T15:28:26;26.10;89.20
26982;DHT22;14533;50.848;4.380;2022-08-21T15:30:52;25.80;89.50
26982;DHT22;14533;50.848;4.380;2022-08-21T15:33:18;25.80;90.10
26982;DHT22;14533;50.848;4.380;2022-08-21T15:35:44;25.60;90.00
26982;DHT22;14533;50.848;4.380;2022-08-21T15:38:12;25.60;90.40
26982;DHT22;14533;50.848;4.380;2022-08-21T15:40:39;25.60;90.10
26982;DHT22;14533;50.848;4.380;2022-08-21T15:43:06;25.70;90.30
26982;DHT22;14533;50.848;4.380;2022-08-21T15:45:33;26.00;87.30
26982;DHT22;14533;50.848;4.380;2022-08-21T15:47:59;26.00;88.60
26982;DHT22;14533;50.848;4.380;2022-08-21T15:50:26;25.90;88.90
26982;DHT22;14533;50.848;4.380;2022-08-21T15:52:54;26.20;88.60
26982;DHT22;14533;50.848;4.380;2022-08-21T15:55:20;26.10;87.50
26982;DHT22;14533;50.848;4.380;2022-08-21T15:57:48;26.00;87.00
26982;DHT22;14533;50.848;4.380;2022-08-21T16:00:18;26.00;87.80
26982;DHT22;14533;50.848;4.380;2022-08-21T16:02:47;26.10;87.10
26982;DHT22;14533;50.848;4.380;2022-08-21T16:05:14;26.00;86.80
26982;DHT22;14533;50.848;4.380;2022-08-21T16:07:42;25.80;87.60
26982;DHT22;14533;50.848;4.380;2022-08-21T16:10:09;25.90;87.80
26982;DHT22;14533;50.848;4.380;2022-08-21T16:12:40;26.00;87.70
26982;DHT22;14533;50.848;4.380;2022-08-21T16:15:09;26.10;86.80
26982;DHT22;14533;50.848;4.380;2022-08-21T16:17:38;25.80;87.00
26982;DHT22;14533;50.848;4.380;2022-08-21T16:20:08;25.60;88.30
26982;DHT22;14533;50.848;4.380;2022-08-21T16:22:35;25.60;88.00
26982;DHT22;14533;50.848;4.380;2022-08-21T16:25:01;25.10;87.30
26982;DHT22;14533;50.848;4.380;2022-08-21T16:27:26;24.60;89.70
26982;DHT22;14533;50.848;4.380;2022-08-21T16:29:52;24.80;90.00
26982;DHT22;14533;50.848;4.380;2022-08-21T16:32:18;25.10;88.50
26982;DHT22;14533;50.848;4.380;2022-08-21T16:34:48;25.40;86.60
26982;DHT22;14533;50.848;4.380;2022-08-21T16:37:15;25.50;87.10
26982;DHT22;14533;50.848;4.380;2022-08-21T16:39:41;25.30;87.80
26982;DHT22;14533;50.848;4.380;2022-08-21T16:42:11;25.40;88.30
26982;DHT22;14533;50.848;4.380;2022-08-21T16:44:37;25.60;87.60
26982;DHT22;14533;50.848;4.380;2022-08-21T16:47:03;25.60;87.40
26982;DHT22;14533;50.848;4.380;2022-08-21T16:49:29;25.60;87.80
26982;DHT22;14533;50.848;4.380;2022-08-21T16:51:56;25.60;87.80
26982;DHT22;14533;50.848;4.380;2022-08-21T16:54:22;25.40;88.40
26982;DHT22;14533;50.848;4.380;2022-08-21T16:56:48;25.50;88.20
26982;DHT22;14533;50.848;4.380;2022-08-21T16:59:15;25.50;88.30
26982;DHT22;14533;50.848;4.380;2022-08-21T17:01:41;25.60;87.40
26982;DHT22;14533;50.848;4.380;2022-08-21T17:04:06;25.60;87.70
26982;DHT22;14533;50.848;4.380;2022-08-21T17:06:32;25.60;87.30
26982;DHT22;14533;50.848;4.380;2022-08-21T17:08:59;25.60;87.60